sensor_id;sensor_type;location;lat;lon;timestamp;pressure;altitude;pressure_sealevel;temperature;humidity
35226;BME280;21813;49.686;21.766;2022-09-11T00:00:49;97896.44;;;11.82;100.00
35226;BME280;21813;49.686;21.766;2022-09-11T00:03:28;97908.75;;;11.89;100.00
35226;BME280;21813;49.686;21.766;2022-09-11T06:10:45;97862.94;;;13.73;100.00
35226;BME280;21813;49.686;21.766;2022-09-11T07:01:57;97830.44;;;13.92;100.00
35226;BME280;21813;49.686;21.766;2022-09-11T07:05:10;97847.59;;;14.12;100.00
35226;BME280;21813;49.686;21.766;2022-09-11T07:08:13;97827.69;;;13.94;100.00
35226;BME280;21813;49.686;21.766;2022-09-11T07:14:15;97858.91;;;14.13;100.00
35226;BME280;21813;49.686;21.766;2022-09-11T07:21:24;97858.94;;;14.21;100.00
35226;BME280;21813;49.686;21.766;2022-09-11T07:24:49;97842.03;;;14.15;100.00
35226;BME280;21813;49.686;21.766;2022-09-11T07:33:52;97840.94;;;14.34;100.00
35226;BME280;21813;49.686;21.766;2022-09-11T07:36:49;97836.03;;;14.31;100.00
35226;BME280;21813;49.686;21.766;2022-09-11T07:39:16;97842.59;;;14.35;100.00
35226;BME280;21813;49.686;21.766;2022-09-11T07:41:50;97850.69;;;14.42;100.00
35226;BME280;21813;49.686;21.766;2022-09-11T07:44:28;97829.19;;;14.38;100.00
35226;BME280;21813;49.686;21.766;2022-09-11T07:46:55;97859.41;;;14.58;100.00
35226;BME280;21813;49.686;21.766;2022-09-11T07:49:30;97843.19;;;14.55;100.00
35226;BME280;21813;49.686;21.766;2022-09-11T07:52:14;97828.09;;;14.57;100.00
35226;BME280;21813;49.686;21.766;2022-09-11T07:54:47;97845.34;;;14.76;100.00
35226;BME280;21813;49.686;21.766;2022-09-11T07:57:21;97845.53;;;14.82;100.00
35226;BME280;21813;49.686;21.766;2022-09-11T08:00:27;97852.91;;;14.87;100.00
35226;BME280;21813;49.686;21.766;2022-09-11T08:03:40;97857.34;;;14.94;100.00
35226;BME280;21813;49.686;21.766;2022-09-11T08:06:41;97859.66;;;15.06;100.00
35226;BME280;21813;49.686;21.766;2022-09-11T08:09:35;97830.31;;;15.10;100.00
35226;BME280;21813;49.686;21.766;2022-09-11T08:12:04;97834.09;;;15.24;100.00
35226;BME280;21813;49.686;21.766;2022-09-11T08:14:51;97843.28;;;15.44;100.00
35226;BME280;21813;49.686;21.766;2022-09-11T08:17:55;97824.06;;;15.43;100.00
35226;BME280;21813;49.686;21.766;2022-09-11T08:20:42;97816.81;;;15.45;100.00
35226;BME280;21813;49.686;21.766;2022-09-11T08:23:23;97818.81;;;15.52;100.00
35226;BME280;21813;49.686;21.766;2022-09-11T08:26:21;97850.59;;;15.89;100.00
35226;BME280;21813;49.686;21.766;2022-09-11T08:29:27;97843.66;;;15.96;100.00
35226;BME280;21813;49.686;21.766;2022-09-11T08:32:03;97858.78;;;16.02;100.00
35226;BME280;21813;49.686;21.766;2022-09-11T08:46:05;97861.13;;;15.89;100.00
35226;BME280;21813;49.686;21.766;2022-09-11T09:09:17;97854.47;;;16.17;100.00
35226;BME280;21813;49.686;21.766;2022-09-11T09:22:16;97863.25;;;16.32;100.00
35226;BME280;21813;49.686;21.766;2022-09-11T09:28:42;97833.00;;;16.37;100.00
35226;BME280;21813;49.686;21.766;2022-09-11T09:31:18;97833.38;;;16.56;100.00
35226;BME280;21813;49.686;21.766;2022-09-11T09:34:12;97841.53;;;16.77;100.00
35226;BME280;21813;49.686;21.766;2022-09-11T09:37:16;97844.63;;;16.81;100.00
35226;BME280;21813;49.686;21.766;2022-09-11T09:39:45;97823.94;;;16.78;100.00
35226;BME280;21813;49.686;21.766;2022-09-11T09:48:17;97838.78;;;17.16;98.24
35226;BME280;21813;49.686;21.766;2022-09-11T09:51:40;97831.63;;;17.25;98.01
35226;BME280;21813;49.686;21.766;2022-09-11T09:54:32;97852.03;;;17.46;97.26
35226;BME280;21813;49.686;21.766;2022-09-11T09:57:40;97815.22;;;17.38;96.63
35226;BME280;21813;49.686;21.766;2022-09-11T10:00:22;97823.34;;;17.51;94.82
35226;BME280;21813;49.686;21.766;2022-09-11T10:02:51;97847.28;;;17.64;94.81
35226;BME280;21813;49.686;21.766;2022-09-11T10:05:47;97852.38;;;17.65;94.57
35226;BME280;21813;49.686;21.766;2022-09-11T10:12:26;97829.16;;;17.46;92.23
35226;BME280;21813;49.686;21.766;2022-09-11T10:15:21;97848.41;;;17.47;93.36
35226;BME280;21813;49.686;21.766;2022-09-11T10:18:34;97847.47;;;17.40;93.71
35226;BME280;21813;49.686;21.766;2022-09-11T10:21:25;97852.94;;;17.38;93.36
35226;BME280;21813;49.686;21.766;2022-09-11T10:26:49;97847.91;;;17.43;93.53
35226;BME280;21813;49.686;21.766;2022-09-11T10:29:29;97845.81;;;17.39;93.89
35226;BME280;21813;49.686;21.766;2022-09-11T10:32:00;97840.91;;;17.36;94.58
35226;BME280;21813;49.686;21.766;2022-09-11T10:34:36;97836.00;;;17.33;94.15
35226;BME280;21813;49.686;21.766;2022-09-11T10:39:46;97852.44;;;17.20;95.06
35226;BME280;21813;49.686;21.766;2022-09-11T10:42:17;97845.06;;;17.15;94.34
35226;BME280;21813;49.686;21.766;2022-09-11T10:44:48;97849.50;;;17.15;94.81
35226;BME280;21813;49.686;21.766;2022-09-11T10:47:16;97837.94;;;17.16;95.57
35226;BME280;21813;49.686;21.766;2022-09-11T10:49:43;97842.34;;;17.23;94.84
35226;BME280;21813;49.686;21.766;2022-09-11T10:55:07;97847.84;;;17.14;95.41
35226;BME280;21813;49.686;21.766;2022-09-11T10:58:01;97858.38;;;17.14;95.38
35226;BME280;21813;49.686;21.766;2022-09-11T11:00:32;97834.16;;;16.96;95.29
35226;BME280;21813;49.686;21.766;2022-09-11T11:03:19;97850.25;;;17.01;95.77
35226;BME280;21813;49.686;21.766;2022-09-11T11:11:32;97854.78;;;16.92;96.43
35226;BME280;21813;49.686;21.766;2022-09-11T11:17:23;97849.94;;;16.73;98.03
35226;BME280;21813;49.686;21.766;2022-09-11T11:20:16;97851.00;;;16.64;100.00
35226;BME280;21813;49.686;21.766;2022-09-11T11:23:19;97850.00;;;16.57;100.00
35226;BME280;21813;49.686;21.766;2022-09-11T11:36:37;97841.31;;;16.09;100.00
35226;BME280;21813;49.686;21.766;2022-09-11T11:41:45;97856.94;;;16.11;100.00
35226;BME280;21813;49.686;21.766;2022-09-11T11:47:27;97848.38;;;16.17;100.00
35226;BME280;21813;49.686;21.766;2022-09-11T11:52:50;97845.72;;;16.25;100.00
35226;BME280;21813;49.686;21.766;2022-09-11T11:55:26;97853.09;;;16.29;100.00
35226;BME280;21813;49.686;21.766;2022-09-11T11:58:05;97853.56;;;16.33;100.00
35226;BME280;21813;49.686;21.766;2022-09-11T12:00:44;97839.31;;;16.27;100.00
35226;BME280;21813;49.686;21.766;2022-09-11T12:03:20;97835.50;;;16.30;100.00
35226;BME280;21813;49.686;21.766;2022-09-11T12:05:48;97848.06;;;16.51;100.00
35226;BME280;21813;49.686;21.766;2022-09-11T12:08:15;97831.63;;;16.49;100.00
35226;BME280;21813;49.686;21.766;2022-09-11T12:10:45;97836.22;;;16.55;100.00
35226;BME280;21813;49.686;21.766;2022-09-11T12:13:29;97830.88;;;16.71;100.00
35226;BME280;21813;49.686;21.766;2022-09-11T12:18:40;97823.22;;;16.84;100.00
35226;BME280;21813;49.686;21.766;2022-09-11T12:28:45;97807.47;;;16.76;100.00
35226;BME280;21813;49.686;21.766;2022-09-11T12:31:13;97828.72;;;16.97;100.00
35226;BME280;21813;49.686;21.766;2022-09-11T12:36:07;97830.94;;;17.08;100.00
35226;BME280;21813;49.686;21.766;2022-09-11T12:38:54;97795.84;;;16.93;100.00
35226;BME280;21813;49.686;21.766;2022-09-11T12:41:32;97810.88;;;17.07;100.00
35226;BME280;21813;49.686;21.766;2022-09-11T12:44:02;97821.69;;;17.12;99.59
35226;BME280;21813;49.686;21.766;2022-09-11T12:48:57;97818.75;;;17.07;97.31
35226;BME280;21813;49.686;21.766;2022-09-11T12:51:32;97824.47;;;16.96;97.30
35226;BME280;21813;49.686;21.766;2022-09-11T12:54:12;97822.97;;;16.94;97.98
35226;BME280;21813;49.686;21.766;2022-09-11T12:56:46;97831.00;;;17.00;98.06
35226;BME280;21813;49.686;21.766;2022-09-11T12:59:24;97801.63;;;16.89;97.60
35226;BME280;21813;49.686;21.766;2022-09-11T13:01:53;97825.66;;;17.08;97.36
35226;BME280;21813;49.686;21.766;2022-09-11T13:04:30;97809.22;;;17.06;96.21
35226;BME280;21813;49.686;21.766;2022-09-11T13:07:00;97801.97;;;17.08;94.31
35226;BME280;21813;49.686;21.766;2022-09-11T13:09:50;97828.88;;;17.18;93.67
35226;BME280;21813;49.686;21.766;2022-09-11T13:15:03;97823.72;;;17.02;93.24
35226;BME280;21813;49.686;21.766;2022-09-11T13:17:44;97819.34;;;16.95;94.73
35226;BME280;21813;49.686;21.766;2022-09-11T13:20:23;97817.63;;;16.87;95.59
35226;BME280;21813;49.686;21.766;2022-09-11T13:23:21;97820.25;;;16.87;96.76
35226;BME280;21813;49.686;21.766;2022-09-11T13:25:50;97821.88;;;16.88;98.32
35226;BME280;21813;49.686;21.766;2022-09-11T13:28:45;97829.53;;;16.98;98.76
35226;BME280;21813;49.686;21.766;2022-09-11T13:35:28;97814.56;;;16.75;100.00
35226;BME280;21813;49.686;21.766;2022-09-11T13:38:06;97820.69;;;16.68;100.00
35226;BME280;21813;49.686;21.766;2022-09-11T13:40:57;97824.69;;;16.64;100.00
35226;BME280;21813;49.686;21.766;2022-09-11T13:44:25;97850.28;;;16.70;100.00
35226;BME280;21813;49.686;21.766;2022-09-11T13:47:00;97831.91;;;16.62;100.00
35226;BME280;21813;49.686;21.766;2022-09-11T13:49:36;97826.19;;;16.58;100.00
35226;BME280;21813;49.686;21.766;2022-09-11T13:52:31;97825.34;;;16.58;100.00
35226;BME280;21813;49.686;21.766;2022-09-11T13:55:29;97811.22;;;16.59;100.00
35226;BME280;21813;49.686;21.766;2022-09-11T13:58:30;97790.53;;;16.48;100.00
35226;BME280;21813;49.686;21.766;2022-09-11T14:01:28;97824.47;;;16.65;100.00
35226;BME280;21813;49.686;21.766;2022-09-11T14:04:23;97827.00;;;16.59;100.00
35226;BME280;21813;49.686;21.766;2022-09-11T14:21:38;97796.47;;;16.42;100.00
35226;BME280;21813;49.686;21.766;2022-09-11T14:27:46;97797.44;;;16.49;100.00
35226;BME280;21813;49.686;21.766;2022-09-11T14:30:33;97809.06;;;16.54;100.00
35226;BME280;21813;49.686;21.766;2022-09-11T14:33:25;97803.63;;;16.56;100.00
35226;BME280;21813;49.686;21.766;2022-09-11T14:36:15;97795.72;;;16.56;100.00
35226;BME280;21813;49.686;21.766;2022-09-11T14:38:46;97783.63;;;16.47;100.00
35226;BME280;21813;49.686;21.766;2022-09-11T14:41:14;97801.81;;;16.56;100.00
35226;BME280;21813;49.686;21.766;2022-09-11T14:43:41;97801.69;;;16.58;100.00
35226;BME280;21813;49.686;21.766;2022-09-11T14:46:08;97788.25;;;16.45;100.00
35226;BME280;21813;49.686;21.766;2022-09-11T14:48:34;97784.63;;;16.46;99.95
35226;BME280;21813;49.686;21.766;2022-09-11T14:51:20;97797.56;;;16.55;99.73
35226;BME280;21813;49.686;21.766;2022-09-11T14:53:57;97801.34;;;16.53;99.16
35226;BME280;21813;49.686;21.766;2022-09-11T15:00:30;97804.63;;;16.55;97.08
35226;BME280;21813;49.686;21.766;2022-09-11T15:11:18;97789.16;;;16.29;98.75
35226;BME280;21813;49.686;21.766;2022-09-11T15:14:18;97819.00;;;16.44;99.57
35226;BME280;21813;49.686;21.766;2022-09-11T15:24:12;97796.41;;;16.19;100.00
35226;BME280;21813;49.686;21.766;2022-09-11T15:27:40;97796.47;;;16.11;100.00
35226;BME280;21813;49.686;21.766;2022-09-11T15:34:22;97826.88;;;16.05;99.57
35226;BME280;21813;49.686;21.766;2022-09-11T15:37:15;97829.28;;;15.76;100.00
35226;BME280;21813;49.686;21.766;2022-09-11T15:39:42;97861.47;;;15.78;98.75
35226;BME280;21813;49.686;21.766;2022-09-11T15:42:07;97841.94;;;15.48;100.00
35226;BME280;21813;49.686;21.766;2022-09-11T15:44:36;97849.31;;;15.44;100.00
35226;BME280;21813;49.686;21.766;2022-09-11T15:47:21;97866.72;;;15.37;100.00
35226;BME280;21813;49.686;21.766;2022-09-11T15:49:56;97859.19;;;15.18;100.00
35226;BME280;21813;49.686;21.766;2022-09-11T15:52:36;97860.31;;;15.08;100.00
35226;BME280;21813;49.686;21.766;2022-09-11T15:55:13;97841.94;;;14.83;100.00
35226;BME280;21813;49.686;21.766;2022-09-11T15:57:51;97876.25;;;14.98;100.00
35226;BME280;21813;49.686;21.766;2022-09-11T16:00:55;97871.63;;;14.92;100.00
35226;BME280;21813;49.686;21.766;2022-09-11T16:03:29;97868.66;;;14.87;100.00
35226;BME280;21813;49.686;21.766;2022-09-11T16:06:16;97870.59;;;14.77;100.00
35226;BME280;21813;49.686;21.766;2022-09-11T16:08:57;97823.69;;;14.57;100.00
35226;BME280;21813;49.686;21.766;2022-09-11T16:11:30;97850.44;;;14.69;100.00
35226;BME280;21813;49.686;21.766;2022-09-11T16:13:59;97868.31;;;14.74;100.00
35226;BME280;21813;49.686;21.766;2022-09-11T16:16:28;97856.16;;;14.65;100.00
35226;BME280;21813;49.686;21.766;2022-09-11T16:19:02;97853.84;;;14.62;100.00
35226;BME280;21813;49.686;21.766;2022-09-11T16:21:55;97863.34;;;14.63;100.00
35226;BME280;21813;49.686;21.766;2022-09-11T16:25:20;97850.91;;;14.56;100.00
35226;BME280;21813;49.686;21.766;2022-09-11T16:28:04;97856.78;;;14.58;100.00
35226;BME280;21813;49.686;21.766;2022-09-11T16:30:59;97851.34;;;14.52;100.00
35226;BME280;21813;49.686;21.766;2022-09-11T16:33:49;97837.06;;;14.38;100.00
35226;BME280;21813;49.686;21.766;2022-09-11T16:36:32;97843.94;;;14.39;100.00
35226;BME280;21813;49.686;21.766;2022-09-11T16:39:15;97868.91;;;14.51;100.00
35226;BME280;21813;49.686;21.766;2022-09-11T16:42:03;97828.50;;;14.28;100.00
35226;BME280;21813;49.686;21.766;2022-09-11T16:45:11;97842.59;;;14.35;100.00
35226;BME280;21813;49.686;21.766;2022-09-11T16:47:37;97841.13;;;14.33;100.00
35226;BME280;21813;49.686;21.766;2022-09-11T16:50:09;97858.31;;;14.35;100.00
35226;BME280;21813;49.686;21.766;2022-09-11T16:53:12;97863.06;;;14.32;100.00
35226;BME280;21813;49.686;21.766;2022-09-11T16:55:48;97847.78;;;14.19;100.00
35226;BME280;21813;49.686;21.766;2022-09-11T16:58:14;97847.78;;;14.19;100.00
35226;BME280;21813;49.686;21.766;2022-09-11T17:00:44;97848.44;;;14.21;100.00
35226;BME280;21813;49.686;21.766;2022-09-11T17:03:11;97858.94;;;14.21;100.00
35226;BME280;21813;49.686;21.766;2022-09-11T17:05:56;97865.66;;;14.24;100.00
35226;BME280;21813;49.686;21.766;2022-09-11T17:08:36;97864.50;;;14.18;100.00
35226;BME280;21813;49.686;21.766;2022-09-11T17:13:53;97869.16;;;14.06;100.00
35226;BME280;21813;49.686;21.766;2022-09-11T17:31:10;97879.75;;;13.97;100.00
35226;BME280;21813;49.686;21.766;2022-09-11T17:34:08;97887.84;;;14.03;100.00
35226;BME280;21813;49.686;21.766;2022-09-11T17:37:38;97866.78;;;13.87;100.00
35226;BME280;21813;49.686;21.766;2022-09-11T17:42:46;97901.63;;;14.05;100.00
35226;BME280;21813;49.686;21.766;2022-09-11T17:45:22;97911.63;;;14.10;100.00
35226;BME280;21813;49.686;21.766;2022-09-11T17:47:56;97871.88;;;13.89;100.00
35226;BME280;21813;49.686;21.766;2022-09-11T17:50:24;97891.28;;;14.04;100.00
35226;BME280;21813;49.686;21.766;2022-09-11T19:32:06;97950.81;;;13.33;100.00
35226;BME280;21813;49.686;21.766;2022-09-11T20:15:13;97974.31;;;12.97;100.00
35226;BME280;21813;49.686;21.766;2022-09-11T20:17:51;97964.22;;;12.84;100.00
35226;BME280;21813;49.686;21.766;2022-09-11T20:20:26;97976.84;;;12.89;100.00
35226;BME280;21813;49.686;21.766;2022-09-11T20:23:29;97992.78;;;12.96;100.00
35226;BME280;21813;49.686;21.766;2022-09-11T20:26:20;97990.13;;;12.78;100.00
35226;BME280;21813;49.686;21.766;2022-09-11T20:29:01;97995.88;;;12.81;100.00
35226;BME280;21813;49.686;21.766;2022-09-11T20:34:27;97997.03;;;12.69;100.00
35226;BME280;21813;49.686;21.766;2022-09-11T20:37:13;97978.91;;;12.58;100.00
35226;BME280;21813;49.686;21.766;2022-09-11T20:42:27;97988.03;;;12.54;100.00
35226;BME280;21813;49.686;21.766;2022-09-11T20:45:02;97989.16;;;12.52;100.00
35226;BME280;21813;49.686;21.766;2022-09-11T20:47:34;98007.53;;;12.60;100.00
35226;BME280;21813;49.686;21.766;2022-09-11T20:50:17;98002.91;;;12.44;100.00
35226;BME280;21813;49.686;21.766;2022-09-11T20:52:52;98017.06;;;12.51;100.00
35226;BME280;21813;49.686;21.766;2022-09-11T20:55:21;98008.44;;;12.41;100.00
35226;BME280;21813;49.686;21.766;2022-09-11T20:58:01;97998.84;;;12.32;100.00
35226;BME280;21813;49.686;21.766;2022-09-11T21:00:53;97979.91;;;12.20;100.00
35226;BME280;21813;49.686;21.766;2022-09-11T21:03:37;98023.72;;;12.36;100.00
35226;BME280;21813;49.686;21.766;2022-09-11T21:06:24;98005.75;;;12.23;100.00
35226;BME280;21813;49.686;21.766;2022-09-11T21:09:01;98020.03;;;12.29;100.00
35226;BME280;21813;49.686;21.766;2022-09-11T21:11:42;97995.88;;;12.08;100.00
35226;BME280;21813;49.686;21.766;2022-09-11T21:17:56;98029.13;;;12.25;100.00
35226;BME280;21813;49.686;21.766;2022-09-11T21:20:59;97986.13;;;12.00;100.00
35226;BME280;21813;49.686;21.766;2022-09-11T21:24:06;97994.78;;;12.01;100.00
35226;BME280;21813;49.686;21.766;2022-09-11T21:27:15;98027.19;;;12.17;100.00
35226;BME280;21813;49.686;21.766;2022-09-11T21:30:28;98002.22;;;11.95;100.00
35226;BME280;21813;49.686;21.766;2022-09-11T21:33:17;98010.19;;;12.04;100.00
35226;BME280;21813;49.686;21.766;2022-09-11T21:36:06;98024.06;;;12.14;100.00
35226;BME280;21813;49.686;21.766;2022-09-11T21:38:50;98009.63;;;12.00;100.00
35226;BME280;21813;49.686;21.766;2022-09-11T21:41:29;98018.72;;;12.06;100.00
35226;BME280;21813;49.686;21.766;2022-09-11T21:44:07;98020.38;;;12.07;100.00
35226;BME280;21813;49.686;21.766;2022-09-11T21:53:39;98011.44;;;12.00;100.00
35226;BME280;21813;49.686;21.766;2022-09-11T21:56:39;98029.69;;;12.09;100.00
35226;BME280;21813;49.686;21.766;2022-09-11T21:59:20;98014.31;;;11.97;100.00
35226;BME280;21813;49.686;21.766;2022-09-11T22:02:16;98012.97;;;11.92;100.00
35226;BME280;21813;49.686;21.766;2022-09-11T22:04:59;98018.44;;;11.99;100.00
35226;BME280;21813;49.686;21.766;2022-09-11T22:07:40;98029.16;;;12.06;100.00
35226;BME280;21813;49.686;21.766;2022-09-11T22:10:17;97988.47;;;11.84;100.00
35226;BME280;21813;49.686;21.766;2022-09-11T22:12:46;98027.38;;;12.06;100.00
35226;BME280;21813;49.686;21.766;2022-09-11T22:15:26;97990.28;;;11.83;100.00
35226;BME280;21813;49.686;21.766;2022-09-11T22:18:17;98010.06;;;11.95;100.00
35226;BME280;21813;49.686;21.766;2022-09-11T22:26:46;98023.41;;;12.02;100.00
35226;BME280;21813;49.686;21.766;2022-09-11T22:29:20;97999.50;;;11.87;100.00
35226;BME280;21813;49.686;21.766;2022-09-11T22:31:47;98000.75;;;11.83;100.00
35226;BME280;21813;49.686;21.766;2022-09-11T22:34:12;98012.13;;;11.92;100.00
35226;BME280;21813;49.686;21.766;2022-09-11T22:36:56;98009.66;;;11.90;100.00
35226;BME280;21813;49.686;21.766;2022-09-11T22:39:48;97983.97;;;11.76;100.00
35226;BME280;21813;49.686;21.766;2022-09-11T22:45:14;98026.44;;;11.98;100.00
35226;BME280;21813;49.686;21.766;2022-09-11T22:47:58;97983.31;;;11.74;100.00
35226;BME280;21813;49.686;21.766;2022-09-11T22:50:45;98007.31;;;11.87;100.00
35226;BME280;21813;49.686;21.766;2022-09-11T22:53:26;98016.53;;;11.91;100.00
35226;BME280;21813;49.686;21.766;2022-09-11T22:56:33;98001.69;;;11.82;100.00
35226;BME280;21813;49.686;21.766;2022-09-11T22:59:01;98013.63;;;11.94;100.00
35226;BME280;21813;49.686;21.766;2022-09-11T23:05:39;98011.00;;;11.94;100.00
35226;BME280;21813;49.686;21.766;2022-09-11T23:08:37;97992.34;;;11.80;100.00
35226;BME280;21813;49.686;21.766;2022-09-11T23:11:24;98010.06;;;11.95;100.00
35226;BME280;21813;49.686;21.766;2022-09-11T23:16:36;98010.75;;;11.98;100.00
35226;BME280;21813;49.686;21.766;2022-09-11T23:19:21;97976.97;;;11.77;100.00
35226;BME280;21813;49.686;21.766;2022-09-11T23:25:41;97981.34;;;11.76;100.00
35226;BME280;21813;49.686;21.766;2022-09-11T23:28:19;98004.44;;;11.90;100.00
35226;BME280;21813;49.686;21.766;2022-09-11T23:30:55;98023.41;;;11.92;100.00
35226;BME280;21813;49.686;21.766;2022-09-11T23:33:30;98007.88;;;11.91;100.00
35226;BME280;21813;49.686;21.766;2022-09-11T23:36:17;97980.00;;;11.72;100.00
35226;BME280;21813;49.686;21.766;2022-09-11T23:39:07;97991.78;;;11.76;100.00
35226;BME280;21813;49.686;21.766;2022-09-11T23:41:44;97998.78;;;11.85;100.00
35226;BME280;21813;49.686;21.766;2022-09-11T23:44:12;98001.69;;;11.82;100.00
35226;BME280;21813;49.686;21.766;2022-09-11T23:46:50;98015.16;;;11.87;100.00
35226;BME280;21813;49.686;21.766;2022-09-11T23:49:40;97981.31;;;11.67;100.00
35226;BME280;21813;49.686;21.766;2022-09-11T23:52:47;97984.91;;;11.66;100.00
35226;BME280;21813;49.686;21.766;2022-09-11T23:55:51;97987.38;;;11.67;100.00
